sensor_id;sensor_type;location;lat;lon;timestamp;pressure;altitude;pressure_sealevel;temperature;humidity
23016;BME280;11674;52.428;13.584;2023-03-31T00:02:40;100251.59;;;12.65;84.81
23016;BME280;11674;52.428;13.584;2023-03-31T00:07:47;100258.78;;;12.66;84.81
23016;BME280;11674;52.428;13.584;2023-03-31T00:12:54;100256.84;;;12.67;84.69
23016;BME280;11674;52.428;13.584;2023-03-31T00:18:01;100250.66;;;12.70;84.91
23016;BME280;11674;52.428;13.584;2023-03-31T00:23:08;100244.56;;;12.68;84.92
23016;BME280;11674;52.428;13.584;2023-03-31T00:28:15;100237.06;;;12.68;84.86
23016;BME280;11674;52.428;13.584;2023-03-31T00:33:22;100239.69;;;12.73;84.91
23016;BME280;11674;52.428;13.584;2023-03-31T00:38:29;100231.03;;;12.75;85.17
23016;BME280;11674;52.428;13.584;2023-03-31T00:43:37;100222.03;;;12.78;85.17
23016;BME280;11674;52.428;13.584;2023-03-31T00:48:50;100227.59;;;12.78;84.93
23016;BME280;11674;52.428;13.584;2023-03-31T00:54:02;100223.69;;;12.79;84.75
23016;BME280;11674;52.428;13.584;2023-03-31T00:59:11;100224.34;;;12.76;84.74
23016;BME280;11674;52.428;13.584;2023-03-31T01:04:18;100213.94;;;12.68;84.40
23016;BME280;11674;52.428;13.584;2023-03-31T01:09:28;100201.63;;;12.60;84.59
23016;BME280;11674;52.428;13.584;2023-03-31T01:14:35;100201.88;;;12.50;84.56
23016;BME280;11674;52.428;13.584;2023-03-31T01:20:08;100195.28;;;12.38;84.45
23016;BME280;11674;52.428;13.584;2023-03-31T01:25:32;100191.59;;;12.29;84.73
23016;BME280;11674;52.428;13.584;2023-03-31T01:36:23;100179.81;;;12.10;84.66
23016;BME280;11674;52.428;13.584;2023-03-31T01:41:55;100172.56;;;12.00;84.58
23016;BME280;11674;52.428;13.584;2023-03-31T01:47:15;100169.28;;;11.98;84.56
23016;BME280;11674;52.428;13.584;2023-03-31T01:52:36;100160.63;;;12.00;84.51
23016;BME280;11674;52.428;13.584;2023-03-31T01:57:56;100165.56;;;12.03;84.69
23016;BME280;11674;52.428;13.584;2023-03-31T02:03:14;100151.34;;;12.04;84.56
23016;BME280;11674;52.428;13.584;2023-03-31T02:08:28;100142.03;;;12.09;84.81
23016;BME280;11674;52.428;13.584;2023-03-31T02:13:39;100150.06;;;12.10;84.59
23016;BME280;11674;52.428;13.584;2023-03-31T02:18:48;100138.66;;;12.12;84.70
23016;BME280;11674;52.428;13.584;2023-03-31T02:23:56;100125.53;;;12.12;84.80
23016;BME280;11674;52.428;13.584;2023-03-31T02:29:04;100126.56;;;12.16;84.94
23016;BME280;11674;52.428;13.584;2023-03-31T02:34:11;100119.25;;;12.20;84.89
23016;BME280;11674;52.428;13.584;2023-03-31T02:39:22;100113.38;;;12.22;85.01
23016;BME280;11674;52.428;13.584;2023-03-31T02:44:32;100106.34;;;12.24;85.02
23016;BME280;11674;52.428;13.584;2023-03-31T02:49:41;100095.41;;;12.28;84.97
23016;BME280;11674;52.428;13.584;2023-03-31T03:00:40;100095.28;;;12.33;85.08
23016;BME280;11674;52.428;13.584;2023-03-31T03:12:22;100083.50;;;12.36;85.30
23016;BME280;11674;52.428;13.584;2023-03-31T03:17:04;100089.25;;;12.39;85.20
23016;BME280;11674;52.428;13.584;2023-03-31T03:22:13;100078.81;;;12.45;85.04
23016;BME280;11674;52.428;13.584;2023-03-31T03:27:20;100082.44;;;12.45;85.03
23016;BME280;11674;52.428;13.584;2023-03-31T03:32:27;100070.16;;;12.46;85.04
23016;BME280;11674;52.428;13.584;2023-03-31T03:37:34;100057.19;;;12.42;84.79
23016;BME280;11674;52.428;13.584;2023-03-31T03:42:41;100051.44;;;12.38;84.79
23016;BME280;11674;52.428;13.584;2023-03-31T03:47:48;100048.97;;;12.37;84.82
23016;BME280;11674;52.428;13.584;2023-03-31T03:52:55;100044.56;;;12.36;84.88
23016;BME280;11674;52.428;13.584;2023-03-31T03:58:02;100040.47;;;12.33;84.74
23016;BME280;11674;52.428;13.584;2023-03-31T04:03:09;100029.69;;;12.32;84.66
23016;BME280;11674;52.428;13.584;2023-03-31T04:08:18;100024.44;;;12.30;84.92
23016;BME280;11674;52.428;13.584;2023-03-31T04:13:26;100023.91;;;12.28;84.86
23016;BME280;11674;52.428;13.584;2023-03-31T04:18:33;100028.16;;;12.26;84.70
23016;BME280;11674;52.428;13.584;2023-03-31T04:23:41;100017.16;;;12.21;84.84
23016;BME280;11674;52.428;13.584;2023-03-31T04:28:48;100009.97;;;12.20;84.57
23016;BME280;11674;52.428;13.584;2023-03-31T04:33:55;100005.06;;;12.17;84.92
23016;BME280;11674;52.428;13.584;2023-03-31T04:39:03;100001.59;;;12.11;84.71
23016;BME280;11674;52.428;13.584;2023-03-31T04:44:10;99992.56;;;12.06;84.52
23016;BME280;11674;52.428;13.584;2023-03-31T04:49:17;99980.75;;;12.00;84.88
23016;BME280;11674;52.428;13.584;2023-03-31T04:54:24;99972.75;;;11.99;84.68
23016;BME280;11674;52.428;13.584;2023-03-31T04:59:38;99968.97;;;11.95;84.63
23016;BME280;11674;52.428;13.584;2023-03-31T05:04:45;99966.00;;;11.91;84.46
23016;BME280;11674;52.428;13.584;2023-03-31T05:09:52;99960.78;;;11.90;84.59
23016;BME280;11674;52.428;13.584;2023-03-31T05:14:59;99961.72;;;11.85;84.40
23016;BME280;11674;52.428;13.584;2023-03-31T05:20:06;99937.34;;;11.82;84.49
23016;BME280;11674;52.428;13.584;2023-03-31T05:25:23;99942.75;;;11.79;84.69
23016;BME280;11674;52.428;13.584;2023-03-31T05:30:31;99938.63;;;11.76;84.61
23016;BME280;11674;52.428;13.584;2023-03-31T05:35:38;99937.81;;;11.76;84.93
23016;BME280;11674;52.428;13.584;2023-03-31T05:40:45;99938.16;;;11.83;84.94
23016;BME280;11674;52.428;13.584;2023-03-31T05:45:52;99918.72;;;11.83;84.67
23016;BME280;11674;52.428;13.584;2023-03-31T05:50:59;99914.81;;;11.84;84.83
23016;BME280;11674;52.428;13.584;2023-03-31T05:56:07;99912.38;;;11.91;85.07
23016;BME280;11674;52.428;13.584;2023-03-31T06:01:16;99910.66;;;12.03;84.94
23016;BME280;11674;52.428;13.584;2023-03-31T06:06:23;99897.25;;;12.14;85.11
23016;BME280;11674;52.428;13.584;2023-03-31T06:11:30;99894.81;;;12.21;84.94
23016;BME280;11674;52.428;13.584;2023-03-31T06:16:37;99883.06;;;12.24;84.78
23016;BME280;11674;52.428;13.584;2023-03-31T06:21:45;99883.56;;;12.26;85.18
23016;BME280;11674;52.428;13.584;2023-03-31T06:26:59;99873.94;;;12.32;85.24
23016;BME280;11674;52.428;13.584;2023-03-31T06:32:06;99880.84;;;12.43;85.26
23016;BME280;11674;52.428;13.584;2023-03-31T06:37:13;99866.59;;;12.53;85.17
23016;BME280;11674;52.428;13.584;2023-03-31T06:42:20;99855.50;;;12.61;84.96
23016;BME280;11674;52.428;13.584;2023-03-31T06:47:27;99856.47;;;12.65;85.27
23016;BME280;11674;52.428;13.584;2023-03-31T06:52:34;99849.78;;;12.75;85.46
23016;BME280;11674;52.428;13.584;2023-03-31T06:57:41;99854.50;;;12.91;85.69
23016;BME280;11674;52.428;13.584;2023-03-31T07:02:48;99835.03;;;13.08;85.83
23016;BME280;11674;52.428;13.584;2023-03-31T07:07:56;99840.41;;;13.22;85.73
23016;BME280;11674;52.428;13.584;2023-03-31T07:13:04;99840.38;;;13.39;86.03
23016;BME280;11674;52.428;13.584;2023-03-31T07:18:11;99841.78;;;13.62;85.84
23016;BME280;11674;52.428;13.584;2023-03-31T07:23:18;99829.06;;;13.81;85.86
23016;BME280;11674;52.428;13.584;2023-03-31T07:28:26;99825.03;;;13.99;85.83
23016;BME280;11674;52.428;13.584;2023-03-31T07:33:34;99816.78;;;14.11;85.41
23016;BME280;11674;52.428;13.584;2023-03-31T07:38:42;99811.00;;;14.25;85.92
23016;BME280;11674;52.428;13.584;2023-03-31T07:43:50;99805.28;;;14.42;85.83
23016;BME280;11674;52.428;13.584;2023-03-31T07:48:57;99804.47;;;14.62;85.93
23016;BME280;11674;52.428;13.584;2023-03-31T07:54:04;99790.72;;;14.77;86.08
23016;BME280;11674;52.428;13.584;2023-03-31T07:59:11;99785.78;;;14.95;86.13
23016;BME280;11674;52.428;13.584;2023-03-31T08:04:18;99792.81;;;15.13;85.91
23016;BME280;11674;52.428;13.584;2023-03-31T08:09:25;99766.91;;;15.24;86.08
23016;BME280;11674;52.428;13.584;2023-03-31T08:14:32;99765.31;;;15.35;86.05
23016;BME280;11674;52.428;13.584;2023-03-31T08:19:39;99772.56;;;15.48;85.91
23016;BME280;11674;52.428;13.584;2023-03-31T08:24:46;99758.97;;;15.59;86.06
23016;BME280;11674;52.428;13.584;2023-03-31T08:29:53;99753.25;;;15.79;86.20
23016;BME280;11674;52.428;13.584;2023-03-31T08:35:00;99757.78;;;15.96;85.51
23016;BME280;11674;52.428;13.584;2023-03-31T08:40:18;99746.38;;;16.01;85.86
23016;BME280;11674;52.428;13.584;2023-03-31T08:45:33;99737.13;;;16.12;85.44
23016;BME280;11674;52.428;13.584;2023-03-31T08:50:45;99730.50;;;16.05;84.68
23016;BME280;11674;52.428;13.584;2023-03-31T08:55:54;99731.66;;;16.04;85.71
23016;BME280;11674;52.428;13.584;2023-03-31T09:11:52;99696.53;;;16.18;85.10
23016;BME280;11674;52.428;13.584;2023-03-31T09:22:28;99692.53;;;16.31;84.98
23016;BME280;11674;52.428;13.584;2023-03-31T09:27:38;99672.94;;;16.31;85.67
23016;BME280;11674;52.428;13.584;2023-03-31T09:32:48;99665.13;;;16.64;85.85
23016;BME280;11674;52.428;13.584;2023-03-31T09:37:58;99654.88;;;16.84;85.47
23016;BME280;11674;52.428;13.584;2023-03-31T09:43:07;99650.53;;;16.86;85.29
23016;BME280;11674;52.428;13.584;2023-03-31T09:48:22;99644.50;;;17.00;85.45
23016;BME280;11674;52.428;13.584;2023-03-31T09:53:42;99629.50;;;17.08;84.50
23016;BME280;11674;52.428;13.584;2023-03-31T09:58:51;99625.72;;;17.00;84.31
23016;BME280;11674;52.428;13.584;2023-03-31T10:03:58;99622.34;;;16.95;84.53
23016;BME280;11674;52.428;13.584;2023-03-31T10:09:06;99615.66;;;16.84;83.60
23016;BME280;11674;52.428;13.584;2023-03-31T10:14:14;99603.56;;;16.80;83.87
23016;BME280;11674;52.428;13.584;2023-03-31T10:19:26;99601.03;;;16.90;84.18
23016;BME280;11674;52.428;13.584;2023-03-31T10:24:41;99587.13;;;17.09;84.18
23016;BME280;11674;52.428;13.584;2023-03-31T10:29:54;99579.38;;;17.22;84.51
23016;BME280;11674;52.428;13.584;2023-03-31T10:35:25;99566.66;;;17.40;84.42
23016;BME280;11674;52.428;13.584;2023-03-31T10:40:33;99561.84;;;17.56;83.79
23016;BME280;11674;52.428;13.584;2023-03-31T10:45:46;99556.03;;;17.49;82.67
23016;BME280;11674;52.428;13.584;2023-03-31T10:51:04;99552.00;;;17.31;82.88
23016;BME280;11674;52.428;13.584;2023-03-31T11:06:56;99540.81;;;16.69;82.25
23016;BME280;11674;52.428;13.584;2023-03-31T11:12:34;99551.59;;;16.67;82.40
23016;BME280;11674;52.428;13.584;2023-03-31T11:23:31;99523.94;;;16.65;82.31
23016;BME280;11674;52.428;13.584;2023-03-31T11:44:28;99476.75;;;16.83;82.97
23016;BME280;11674;52.428;13.584;2023-03-31T11:49:39;99483.66;;;16.70;82.26
23016;BME280;11674;52.428;13.584;2023-03-31T11:54:56;99456.28;;;16.63;82.46
23016;BME280;11674;52.428;13.584;2023-03-31T12:05:18;99440.44;;;16.86;82.41
23016;BME280;11674;52.428;13.584;2023-03-31T12:10:31;99428.03;;;16.87;82.68
23016;BME280;11674;52.428;13.584;2023-03-31T12:15:43;99432.56;;;16.92;82.55
23016;BME280;11674;52.428;13.584;2023-03-31T12:20:54;99412.47;;;16.71;82.36
23016;BME280;11674;52.428;13.584;2023-03-31T12:31:42;99410.13;;;16.26;80.94
23016;BME280;11674;52.428;13.584;2023-03-31T13:03:38;99401.69;;;13.89;82.51
23016;BME280;11674;52.428;13.584;2023-03-31T13:14:21;99390.19;;;14.03;82.81
23016;BME280;11674;52.428;13.584;2023-03-31T13:19:34;99385.31;;;14.00;83.14
23016;BME280;11674;52.428;13.584;2023-03-31T13:24:41;99391.22;;;13.86;82.78
23016;BME280;11674;52.428;13.584;2023-03-31T13:29:48;99406.59;;;13.60;82.12
23016;BME280;11674;52.428;13.584;2023-03-31T13:35:16;99398.72;;;13.09;81.76
23016;BME280;11674;52.428;13.584;2023-03-31T14:08:55;99371.69;;;12.48;84.39
23016;BME280;11674;52.428;13.584;2023-03-31T14:13:35;99375.78;;;12.42;84.22
23016;BME280;11674;52.428;13.584;2023-03-31T14:18:47;99376.78;;;12.37;84.69
23016;BME280;11674;52.428;13.584;2023-03-31T14:24:20;99365.53;;;12.34;84.58
23016;BME280;11674;52.428;13.584;2023-03-31T14:29:46;99377.69;;;12.29;84.55
23016;BME280;11674;52.428;13.584;2023-03-31T14:40:21;99369.09;;;12.14;84.85
23016;BME280;11674;52.428;13.584;2023-03-31T14:45:30;99367.78;;;12.11;85.19
23016;BME280;11674;52.428;13.584;2023-03-31T14:50:37;99367.94;;;12.15;85.30
23016;BME280;11674;52.428;13.584;2023-03-31T14:55:47;99362.19;;;12.20;85.91
23016;BME280;11674;52.428;13.584;2023-03-31T15:00:54;99367.25;;;12.18;84.93
23016;BME280;11674;52.428;13.584;2023-03-31T15:06:02;99360.47;;;12.07;84.97
23016;BME280;11674;52.428;13.584;2023-03-31T15:11:15;99355.75;;;11.99;84.90
23016;BME280;11674;52.428;13.584;2023-03-31T15:16:42;99349.25;;;11.95;85.36
23016;BME280;11674;52.428;13.584;2023-03-31T15:21:58;99352.81;;;11.95;85.23
23016;BME280;11674;52.428;13.584;2023-03-31T15:32:26;99348.25;;;11.99;85.65
23016;BME280;11674;52.428;13.584;2023-03-31T15:37:39;99342.81;;;12.03;85.90
23016;BME280;11674;52.428;13.584;2023-03-31T15:43:05;99349.63;;;12.14;86.14
23016;BME280;11674;52.428;13.584;2023-03-31T15:53:37;99340.06;;;12.23;85.68
23016;BME280;11674;52.428;13.584;2023-03-31T15:59:05;99334.00;;;12.30;86.21
23016;BME280;11674;52.428;13.584;2023-03-31T16:04:13;99330.34;;;12.38;85.71
23016;BME280;11674;52.428;13.584;2023-03-31T16:09:22;99330.63;;;12.45;85.64
23016;BME280;11674;52.428;13.584;2023-03-31T16:14:42;99319.22;;;12.58;85.50
23016;BME280;11674;52.428;13.584;2023-03-31T16:19:55;99324.72;;;12.67;85.44
23016;BME280;11674;52.428;13.584;2023-03-31T16:25:08;99319.38;;;12.62;84.80
23016;BME280;11674;52.428;13.584;2023-03-31T16:30:19;99324.16;;;12.53;84.82
23016;BME280;11674;52.428;13.584;2023-03-31T16:35:47;99330.16;;;12.43;84.89
23016;BME280;11674;52.428;13.584;2023-03-31T16:40:56;99327.22;;;12.39;84.79
23016;BME280;11674;52.428;13.584;2023-03-31T16:46:03;99325.91;;;12.37;84.87
23016;BME280;11674;52.428;13.584;2023-03-31T16:51:10;99322.22;;;12.33;84.68
23016;BME280;11674;52.428;13.584;2023-03-31T16:56:18;99334.50;;;12.32;84.87
23016;BME280;11674;52.428;13.584;2023-03-31T17:01:25;99330.06;;;12.31;85.01
23016;BME280;11674;52.428;13.584;2023-03-31T17:06:32;99336.13;;;12.33;85.22
23016;BME280;11674;52.428;13.584;2023-03-31T17:11:39;99343.94;;;12.31;84.89
23016;BME280;11674;52.428;13.584;2023-03-31T17:16:46;99343.63;;;12.32;85.19
23016;BME280;11674;52.428;13.584;2023-03-31T17:21:53;99337.88;;;12.37;85.03
23016;BME280;11674;52.428;13.584;2023-03-31T17:27:00;99337.34;;;12.44;85.14
23016;BME280;11674;52.428;13.584;2023-03-31T17:32:07;99342.06;;;12.43;84.60
23016;BME280;11674;52.428;13.584;2023-03-31T17:37:15;99347.03;;;12.38;84.63
23016;BME280;11674;52.428;13.584;2023-03-31T17:42:22;99332.97;;;12.34;84.55
23016;BME280;11674;52.428;13.584;2023-03-31T17:47:30;99339.88;;;12.28;84.67
23016;BME280;11674;52.428;13.584;2023-03-31T17:52:37;99325.50;;;12.26;84.76
23016;BME280;11674;52.428;13.584;2023-03-31T17:57:44;99335.81;;;12.26;84.78
23016;BME280;11674;52.428;13.584;2023-03-31T18:02:51;99346.00;;;12.22;84.62
23016;BME280;11674;52.428;13.584;2023-03-31T18:07:58;99348.28;;;12.20;84.73
23016;BME280;11674;52.428;13.584;2023-03-31T18:13:05;99354.16;;;12.18;84.58
23016;BME280;11674;52.428;13.584;2023-03-31T18:18:12;99347.94;;;12.21;84.69
23016;BME280;11674;52.428;13.584;2023-03-31T18:23:19;99347.63;;;12.23;84.90
23016;BME280;11674;52.428;13.584;2023-03-31T18:28:26;99345.44;;;12.28;84.83
23016;BME280;11674;52.428;13.584;2023-03-31T18:33:33;99347.22;;;12.33;84.89
23016;BME280;11674;52.428;13.584;2023-03-31T18:38:40;99352.94;;;12.36;84.80
23016;BME280;11674;52.428;13.584;2023-03-31T18:43:47;99343.75;;;12.36;84.56
23016;BME280;11674;52.428;13.584;2023-03-31T18:48:54;99357.34;;;12.37;84.58
23016;BME280;11674;52.428;13.584;2023-03-31T18:54:01;99361.75;;;12.38;84.38
23016;BME280;11674;52.428;13.584;2023-03-31T18:59:08;99358.63;;;12.40;84.35
23016;BME280;11674;52.428;13.584;2023-03-31T19:04:15;99359.78;;;12.39;84.55
23016;BME280;11674;52.428;13.584;2023-03-31T19:09:22;99355.03;;;12.39;84.42
23016;BME280;11674;52.428;13.584;2023-03-31T19:14:29;99356.66;;;12.40;84.41
23016;BME280;11674;52.428;13.584;2023-03-31T19:19:36;99357.47;;;12.41;84.55
23016;BME280;11674;52.428;13.584;2023-03-31T19:24:43;99364.19;;;12.40;84.41
23016;BME280;11674;52.428;13.584;2023-03-31T19:29:50;99360.44;;;12.36;84.24
23016;BME280;11674;52.428;13.584;2023-03-31T19:34:57;99367.34;;;12.30;84.18
23016;BME280;11674;52.428;13.584;2023-03-31T19:40:05;99366.06;;;12.27;84.34
23016;BME280;11674;52.428;13.584;2023-03-31T19:45:12;99370.31;;;12.25;84.29
23016;BME280;11674;52.428;13.584;2023-03-31T19:50:19;99372.50;;;12.19;84.61
23016;BME280;11674;52.428;13.584;2023-03-31T19:55:26;99372.81;;;12.18;84.68
23016;BME280;11674;52.428;13.584;2023-03-31T20:00:33;99367.59;;;12.16;84.62
23016;BME280;11674;52.428;13.584;2023-03-31T20:05:40;99367.94;;;12.15;84.59
23016;BME280;11674;52.428;13.584;2023-03-31T20:10:47;99365.00;;;12.11;84.59
23016;BME280;11674;52.428;13.584;2023-03-31T20:16:05;99361.75;;;12.09;84.85
23016;BME280;11674;52.428;13.584;2023-03-31T20:21:14;99367.66;;;12.08;84.92
23016;BME280;11674;52.428;13.584;2023-03-31T20:26:25;99364.41;;;12.06;85.13
23016;BME280;11674;52.428;13.584;2023-03-31T20:31:34;99372.72;;;12.06;85.12
23016;BME280;11674;52.428;13.584;2023-03-31T20:36:43;99371.59;;;12.07;85.01
23016;BME280;11674;52.428;13.584;2023-03-31T20:41:50;99366.22;;;12.02;85.11
23016;BME280;11674;52.428;13.584;2023-03-31T20:46:57;99361.81;;;12.01;85.26
23016;BME280;11674;52.428;13.584;2023-03-31T20:52:04;99345.78;;;11.98;84.98
23016;BME280;11674;52.428;13.584;2023-03-31T20:57:11;99362.47;;;11.98;85.01
23016;BME280;11674;52.428;13.584;2023-03-31T21:02:18;99362.47;;;11.98;85.07
23016;BME280;11674;52.428;13.584;2023-03-31T21:07:25;99361.50;;;11.94;84.87
23016;BME280;11674;52.428;13.584;2023-03-31T21:12:32;99365.75;;;11.91;85.05
23016;BME280;11674;52.428;13.584;2023-03-31T21:17:39;99368.72;;;11.86;84.98
23016;BME280;11674;52.428;13.584;2023-03-31T21:22:46;99368.09;;;11.81;84.78
23016;BME280;11674;52.428;13.584;2023-03-31T21:27:53;99373.84;;;11.76;84.51
23016;BME280;11674;52.428;13.584;2023-03-31T21:33:00;99379.41;;;11.67;84.51
23016;BME280;11674;52.428;13.584;2023-03-31T21:38:14;99380.75;;;11.53;84.71
23016;BME280;11674;52.428;13.584;2023-03-31T21:43:22;99376.00;;;11.45;84.83
23016;BME280;11674;52.428;13.584;2023-03-31T21:48:29;99368.53;;;11.37;84.81
23016;BME280;11674;52.428;13.584;2023-03-31T21:53:37;99374.72;;;11.34;85.21
23016;BME280;11674;52.428;13.584;2023-03-31T21:58:43;99371.97;;;11.25;85.11
23016;BME280;11674;52.428;13.584;2023-03-31T22:03:50;99378.16;;;11.22;85.31
23016;BME280;11674;52.428;13.584;2023-03-31T22:08:57;99388.16;;;11.15;85.29
23016;BME280;11674;52.428;13.584;2023-03-31T22:14:04;99390.44;;;11.13;85.19
23016;BME280;11674;52.428;13.584;2023-03-31T22:19:12;99385.06;;;11.08;85.34
23016;BME280;11674;52.428;13.584;2023-03-31T22:24:18;99393.69;;;11.06;85.37
23016;BME280;11674;52.428;13.584;2023-03-31T22:29:25;99397.97;;;11.04;85.63
23016;BME280;11674;52.428;13.584;2023-03-31T22:34:32;99400.25;;;11.02;85.63
23016;BME280;11674;52.428;13.584;2023-03-31T22:39:39;99391.44;;;11.00;85.77
23016;BME280;11674;52.428;13.584;2023-03-31T22:44:46;99398.13;;;10.99;85.89
23016;BME280;11674;52.428;13.584;2023-03-31T22:49:53;99403.34;;;11.00;86.00
23016;BME280;11674;52.428;13.584;2023-03-31T22:55:00;99405.00;;;11.01;86.01
23016;BME280;11674;52.428;13.584;2023-03-31T23:00:07;99406.94;;;11.01;85.91
23016;BME280;11674;52.428;13.584;2023-03-31T23:05:14;99405.94;;;11.05;85.78
23016;BME280;11674;52.428;13.584;2023-03-31T23:10:22;99406.63;;;11.02;85.70
23016;BME280;11674;52.428;13.584;2023-03-31T23:15:29;99407.78;;;11.01;85.85
23016;BME280;11674;52.428;13.584;2023-03-31T23:20:38;99407.41;;;11.03;85.97
23016;BME280;11674;52.428;13.584;2023-03-31T23:25:44;99410.69;;;11.05;86.25
23016;BME280;11674;52.428;13.584;2023-03-31T23:30:53;99403.31;;;11.09;85.95
23016;BME280;11674;52.428;13.584;2023-03-31T23:36:04;99401.69;;;11.08;85.89
23016;BME280;11674;52.428;13.584;2023-03-31T23:41:11;99395.34;;;11.07;85.59
23016;BME280;11674;52.428;13.584;2023-03-31T23:46:18;99410.03;;;11.08;85.90
23016;BME280;11674;52.428;13.584;2023-03-31T23:51:25;99404.63;;;11.11;86.02
23016;BME280;11674;52.428;13.584;2023-03-31T23:56:32;99415.41;;;11.21;85.88
